sensor_id;sensor_type;location;lat;lon;timestamp;P1;durP1;ratioP1;P2;durP2;ratioP2
8088;SDS011;57635;49.194;12.104;2023-04-25T00:01:46;4.90;;;4.60;;
8088;SDS011;57635;49.194;12.104;2023-04-25T00:04:14;5.50;;;5.10;;
8088;SDS011;57635;49.194;12.104;2023-04-25T00:06:42;5.17;;;4.77;;
8088;SDS011;57635;49.194;12.104;2023-04-25T00:09:10;5.23;;;4.73;;
8088;SDS011;57635;49.194;12.104;2023-04-25T00:11:37;4.53;;;4.20;;
8088;SDS011;57635;49.194;12.104;2023-04-25T00:14:05;5.13;;;4.47;;
8088;SDS011;57635;49.194;12.104;2023-04-25T00:16:34;5.00;;;4.57;;
8088;SDS011;57635;49.194;12.104;2023-04-25T00:19:02;5.00;;;4.70;;
8088;SDS011;57635;49.194;12.104;2023-04-25T00:21:30;5.07;;;4.67;;
8088;SDS011;57635;49.194;12.104;2023-04-25T00:23:59;5.07;;;4.77;;
8088;SDS011;57635;49.194;12.104;2023-04-25T00:26:27;4.80;;;4.50;;
8088;SDS011;57635;49.194;12.104;2023-04-25T00:28:54;4.30;;;4.00;;
8088;SDS011;57635;49.194;12.104;2023-04-25T00:31:23;5.10;;;4.70;;
8088;SDS011;57635;49.194;12.104;2023-04-25T00:33:52;4.70;;;4.37;;
8088;SDS011;57635;49.194;12.104;2023-04-25T00:36:20;5.13;;;4.67;;
8088;SDS011;57635;49.194;12.104;2023-04-25T00:38:47;4.60;;;4.40;;
8088;SDS011;57635;49.194;12.104;2023-04-25T00:41:15;4.43;;;4.13;;
8088;SDS011;57635;49.194;12.104;2023-04-25T00:43:43;4.77;;;4.50;;
8088;SDS011;57635;49.194;12.104;2023-04-25T00:46:11;5.17;;;4.87;;
8088;SDS011;57635;49.194;12.104;2023-04-25T00:48:39;4.87;;;4.57;;
8088;SDS011;57635;49.194;12.104;2023-04-25T00:51:08;4.63;;;4.37;;
8088;SDS011;57635;49.194;12.104;2023-04-25T00:53:39;4.63;;;4.40;;
8088;SDS011;57635;49.194;12.104;2023-04-25T00:56:06;4.47;;;4.17;;
8088;SDS011;57635;49.194;12.104;2023-04-25T00:58:34;5.17;;;4.77;;
8088;SDS011;57635;49.194;12.104;2023-04-25T01:01:02;5.00;;;4.70;;
8088;SDS011;57635;49.194;12.104;2023-04-25T01:03:30;4.90;;;4.50;;
8088;SDS011;57635;49.194;12.104;2023-04-25T01:06:02;4.57;;;4.30;;
8088;SDS011;57635;49.194;12.104;2023-04-25T01:08:31;4.67;;;4.37;;
8088;SDS011;57635;49.194;12.104;2023-04-25T01:10:58;5.50;;;5.10;;
8088;SDS011;57635;49.194;12.104;2023-04-25T01:13:26;4.90;;;4.60;;
8088;SDS011;57635;49.194;12.104;2023-04-25T01:15:54;5.33;;;5.00;;
8088;SDS011;57635;49.194;12.104;2023-04-25T01:18:22;5.87;;;5.20;;
8088;SDS011;57635;49.194;12.104;2023-04-25T01:20:50;5.13;;;4.80;;
8088;SDS011;57635;49.194;12.104;2023-04-25T01:23:20;5.43;;;5.07;;
8088;SDS011;57635;49.194;12.104;2023-04-25T01:25:48;5.70;;;5.20;;
8088;SDS011;57635;49.194;12.104;2023-04-25T01:28:16;5.27;;;4.87;;
8088;SDS011;57635;49.194;12.104;2023-04-25T01:30:44;5.13;;;4.73;;
8088;SDS011;57635;49.194;12.104;2023-04-25T01:33:12;4.53;;;4.27;;
8088;SDS011;57635;49.194;12.104;2023-04-25T01:35:41;4.63;;;4.23;;
8088;SDS011;57635;49.194;12.104;2023-04-25T01:38:09;4.40;;;4.20;;
8088;SDS011;57635;49.194;12.104;2023-04-25T01:40:38;4.33;;;4.10;;
8088;SDS011;57635;49.194;12.104;2023-04-25T01:43:07;4.80;;;4.40;;
8088;SDS011;57635;49.194;12.104;2023-04-25T01:45:37;4.90;;;4.50;;
8088;SDS011;57635;49.194;12.104;2023-04-25T01:48:06;5.00;;;4.60;;
8088;SDS011;57635;49.194;12.104;2023-04-25T01:50:34;6.17;;;4.83;;
8088;SDS011;57635;49.194;12.104;2023-04-25T01:53:01;4.63;;;4.33;;
8088;SDS011;57635;49.194;12.104;2023-04-25T01:55:29;5.27;;;4.47;;
8088;SDS011;57635;49.194;12.104;2023-04-25T01:57:58;5.07;;;4.60;;
8088;SDS011;57635;49.194;12.104;2023-04-25T02:00:26;4.27;;;3.97;;
8088;SDS011;57635;49.194;12.104;2023-04-25T02:02:57;4.03;;;3.83;;
8088;SDS011;57635;49.194;12.104;2023-04-25T02:05:25;4.97;;;4.60;;
8088;SDS011;57635;49.194;12.104;2023-04-25T02:07:52;5.00;;;4.60;;
8088;SDS011;57635;49.194;12.104;2023-04-25T02:10:20;4.37;;;4.07;;
8088;SDS011;57635;49.194;12.104;2023-04-25T02:12:48;4.60;;;4.20;;
8088;SDS011;57635;49.194;12.104;2023-04-25T02:15:17;4.77;;;4.47;;
8088;SDS011;57635;49.194;12.104;2023-04-25T02:17:44;5.00;;;4.60;;
8088;SDS011;57635;49.194;12.104;2023-04-25T02:20:12;4.30;;;4.00;;
8088;SDS011;57635;49.194;12.104;2023-04-25T02:22:40;4.07;;;3.87;;
8088;SDS011;57635;49.194;12.104;2023-04-25T02:25:08;5.03;;;4.63;;
8088;SDS011;57635;49.194;12.104;2023-04-25T02:27:38;4.60;;;4.00;;
8088;SDS011;57635;49.194;12.104;2023-04-25T02:30:06;4.23;;;3.93;;
8088;SDS011;57635;49.194;12.104;2023-04-25T02:32:35;4.67;;;4.37;;
8088;SDS011;57635;49.194;12.104;2023-04-25T02:35:03;4.17;;;3.97;;
8088;SDS011;57635;49.194;12.104;2023-04-25T02:37:32;4.77;;;4.47;;
8088;SDS011;57635;49.194;12.104;2023-04-25T02:40:00;5.20;;;4.70;;
8088;SDS011;57635;49.194;12.104;2023-04-25T02:42:29;4.83;;;4.53;;
8088;SDS011;57635;49.194;12.104;2023-04-25T02:44:56;4.33;;;3.97;;
8088;SDS011;57635;49.194;12.104;2023-04-25T02:47:24;4.63;;;4.30;;
8088;SDS011;57635;49.194;12.104;2023-04-25T02:49:53;4.87;;;4.47;;
8088;SDS011;57635;49.194;12.104;2023-04-25T02:52:21;4.60;;;4.30;;
8088;SDS011;57635;49.194;12.104;2023-04-25T02:54:49;5.33;;;4.40;;
8088;SDS011;57635;49.194;12.104;2023-04-25T02:57:16;5.30;;;4.90;;
8088;SDS011;57635;49.194;12.104;2023-04-25T02:59:44;5.03;;;4.73;;
8088;SDS011;57635;49.194;12.104;2023-04-25T03:02:12;5.57;;;5.10;;
8088;SDS011;57635;49.194;12.104;2023-04-25T03:04:40;4.70;;;4.30;;
8088;SDS011;57635;49.194;12.104;2023-04-25T03:07:09;4.00;;;3.73;;
8088;SDS011;57635;49.194;12.104;2023-04-25T03:09:37;4.50;;;4.20;;
8088;SDS011;57635;49.194;12.104;2023-04-25T03:12:05;4.43;;;4.23;;
8088;SDS011;57635;49.194;12.104;2023-04-25T03:14:33;4.77;;;4.47;;
8088;SDS011;57635;49.194;12.104;2023-04-25T03:17:00;5.30;;;4.87;;
8088;SDS011;57635;49.194;12.104;2023-04-25T03:19:28;5.10;;;4.60;;
8088;SDS011;57635;49.194;12.104;2023-04-25T03:21:56;4.77;;;4.47;;
8088;SDS011;57635;49.194;12.104;2023-04-25T03:24:25;5.20;;;4.80;;
8088;SDS011;57635;49.194;12.104;2023-04-25T03:26:53;4.77;;;4.47;;
8088;SDS011;57635;49.194;12.104;2023-04-25T03:29:21;4.47;;;4.27;;
8088;SDS011;57635;49.194;12.104;2023-04-25T03:31:50;5.30;;;4.90;;
8088;SDS011;57635;49.194;12.104;2023-04-25T03:34:18;4.67;;;4.37;;
8088;SDS011;57635;49.194;12.104;2023-04-25T03:36:47;5.20;;;4.80;;
8088;SDS011;57635;49.194;12.104;2023-04-25T03:39:15;3.87;;;3.67;;
8088;SDS011;57635;49.194;12.104;2023-04-25T03:41:44;4.43;;;4.17;;
8088;SDS011;57635;49.194;12.104;2023-04-25T03:44:12;4.50;;;4.20;;
8088;SDS011;57635;49.194;12.104;2023-04-25T03:46:39;4.97;;;4.27;;
8088;SDS011;57635;49.194;12.104;2023-04-25T03:49:07;4.57;;;4.17;;
8088;SDS011;57635;49.194;12.104;2023-04-25T03:51:35;4.17;;;3.97;;
8088;SDS011;57635;49.194;12.104;2023-04-25T03:54:02;5.07;;;4.67;;
8088;SDS011;57635;49.194;12.104;2023-04-25T03:56:30;5.50;;;4.90;;
8088;SDS011;57635;49.194;12.104;2023-04-25T03:58:59;5.53;;;4.47;;
8088;SDS011;57635;49.194;12.104;2023-04-25T04:01:27;4.50;;;4.20;;
8088;SDS011;57635;49.194;12.104;2023-04-25T04:03:55;6.60;;;5.00;;
8088;SDS011;57635;49.194;12.104;2023-04-25T04:06:24;4.53;;;4.17;;
8088;SDS011;57635;49.194;12.104;2023-04-25T04:08:51;5.03;;;4.73;;
8088;SDS011;57635;49.194;12.104;2023-04-25T04:11:19;4.93;;;4.63;;
8088;SDS011;57635;49.194;12.104;2023-04-25T04:13:47;5.00;;;4.70;;
8088;SDS011;57635;49.194;12.104;2023-04-25T04:16:16;5.10;;;4.77;;
8088;SDS011;57635;49.194;12.104;2023-04-25T04:18:45;5.33;;;4.80;;
8088;SDS011;57635;49.194;12.104;2023-04-25T04:21:13;4.87;;;4.47;;
8088;SDS011;57635;49.194;12.104;2023-04-25T04:23:41;5.10;;;4.80;;
8088;SDS011;57635;49.194;12.104;2023-04-25T04:26:08;5.33;;;4.93;;
8088;SDS011;57635;49.194;12.104;2023-04-25T04:28:37;5.07;;;4.77;;
8088;SDS011;57635;49.194;12.104;2023-04-25T04:31:05;4.70;;;4.40;;
8088;SDS011;57635;49.194;12.104;2023-04-25T04:33:35;4.80;;;4.50;;
8088;SDS011;57635;49.194;12.104;2023-04-25T04:36:03;5.10;;;4.70;;
8088;SDS011;57635;49.194;12.104;2023-04-25T04:38:30;5.37;;;5.07;;
8088;SDS011;57635;49.194;12.104;2023-04-25T04:40:58;4.90;;;4.50;;
8088;SDS011;57635;49.194;12.104;2023-04-25T04:43:26;5.30;;;4.90;;
8088;SDS011;57635;49.194;12.104;2023-04-25T04:45:54;4.60;;;4.30;;
8088;SDS011;57635;49.194;12.104;2023-04-25T04:48:23;4.67;;;4.37;;
8088;SDS011;57635;49.194;12.104;2023-04-25T04:50:52;4.70;;;4.40;;
8088;SDS011;57635;49.194;12.104;2023-04-25T04:53:20;5.10;;;4.70;;
8088;SDS011;57635;49.194;12.104;2023-04-25T04:55:47;5.00;;;4.50;;
8088;SDS011;57635;49.194;12.104;2023-04-25T04:58:16;4.80;;;4.10;;
8088;SDS011;57635;49.194;12.104;2023-04-25T05:00:44;4.40;;;4.00;;
8088;SDS011;57635;49.194;12.104;2023-04-25T05:03:12;5.30;;;4.90;;
8088;SDS011;57635;49.194;12.104;2023-04-25T05:05:40;4.47;;;4.17;;
8088;SDS011;57635;49.194;12.104;2023-04-25T05:08:09;4.40;;;4.10;;
8088;SDS011;57635;49.194;12.104;2023-04-25T05:10:37;4.70;;;4.40;;
8088;SDS011;57635;49.194;12.104;2023-04-25T05:13:05;4.43;;;4.13;;
8088;SDS011;57635;49.194;12.104;2023-04-25T05:15:32;4.77;;;4.47;;
8088;SDS011;57635;49.194;12.104;2023-04-25T05:18:00;4.90;;;4.50;;
8088;SDS011;57635;49.194;12.104;2023-04-25T05:20:28;5.10;;;4.60;;
8088;SDS011;57635;49.194;12.104;2023-04-25T05:22:56;5.40;;;5.00;;
8088;SDS011;57635;49.194;12.104;2023-04-25T05:25:25;7.53;;;5.00;;
8088;SDS011;57635;49.194;12.104;2023-04-25T05:27:52;6.20;;;5.07;;
8088;SDS011;57635;49.194;12.104;2023-04-25T05:30:20;6.03;;;5.03;;
8088;SDS011;57635;49.194;12.104;2023-04-25T05:32:48;4.97;;;4.67;;
8088;SDS011;57635;49.194;12.104;2023-04-25T05:35:16;4.67;;;4.37;;
8088;SDS011;57635;49.194;12.104;2023-04-25T05:37:45;5.40;;;4.90;;
8088;SDS011;57635;49.194;12.104;2023-04-25T05:40:12;5.23;;;4.77;;
8088;SDS011;57635;49.194;12.104;2023-04-25T05:42:41;5.63;;;4.97;;
8088;SDS011;57635;49.194;12.104;2023-04-25T05:45:09;5.13;;;4.73;;
8088;SDS011;57635;49.194;12.104;2023-04-25T05:47:37;4.70;;;4.40;;
8088;SDS011;57635;49.194;12.104;2023-04-25T05:50:05;4.77;;;4.37;;
8088;SDS011;57635;49.194;12.104;2023-04-25T05:52:35;4.80;;;4.50;;
8088;SDS011;57635;49.194;12.104;2023-04-25T05:55:02;4.77;;;4.30;;
8088;SDS011;57635;49.194;12.104;2023-04-25T05:57:30;4.77;;;4.37;;
8088;SDS011;57635;49.194;12.104;2023-04-25T05:59:59;8.40;;;4.63;;
8088;SDS011;57635;49.194;12.104;2023-04-25T06:02:27;4.67;;;4.27;;
8088;SDS011;57635;49.194;12.104;2023-04-25T06:04:55;4.47;;;4.17;;
8088;SDS011;57635;49.194;12.104;2023-04-25T06:07:23;4.23;;;3.93;;
8088;SDS011;57635;49.194;12.104;2023-04-25T06:09:50;4.10;;;3.80;;
8088;SDS011;57635;49.194;12.104;2023-04-25T06:12:19;3.70;;;3.40;;
8088;SDS011;57635;49.194;12.104;2023-04-25T06:14:47;3.87;;;3.60;;
8088;SDS011;57635;49.194;12.104;2023-04-25T06:17:16;3.90;;;3.53;;
8088;SDS011;57635;49.194;12.104;2023-04-25T06:19:44;4.60;;;4.27;;
8088;SDS011;57635;49.194;12.104;2023-04-25T06:22:11;3.90;;;3.70;;
8088;SDS011;57635;49.194;12.104;2023-04-25T06:24:39;5.13;;;4.27;;
8088;SDS011;57635;49.194;12.104;2023-04-25T06:27:06;4.93;;;3.63;;
8088;SDS011;57635;49.194;12.104;2023-04-25T06:29:34;4.43;;;3.80;;
8088;SDS011;57635;49.194;12.104;2023-04-25T06:32:02;4.00;;;3.70;;
8088;SDS011;57635;49.194;12.104;2023-04-25T06:34:31;4.33;;;3.53;;
8088;SDS011;57635;49.194;12.104;2023-04-25T06:36:58;4.20;;;3.93;;
8088;SDS011;57635;49.194;12.104;2023-04-25T06:39:26;3.63;;;3.33;;
8088;SDS011;57635;49.194;12.104;2023-04-25T06:41:53;3.33;;;3.23;;
8088;SDS011;57635;49.194;12.104;2023-04-25T06:44:21;3.47;;;3.27;;
8088;SDS011;57635;49.194;12.104;2023-04-25T06:46:52;3.63;;;3.33;;
8088;SDS011;57635;49.194;12.104;2023-04-25T06:49:19;3.73;;;3.43;;
8088;SDS011;57635;49.194;12.104;2023-04-25T06:51:48;3.37;;;3.17;;
8088;SDS011;57635;49.194;12.104;2023-04-25T06:54:16;3.53;;;3.33;;
8088;SDS011;57635;49.194;12.104;2023-04-25T06:56:45;4.40;;;4.10;;
8088;SDS011;57635;49.194;12.104;2023-04-25T06:59:13;4.63;;;4.20;;
8088;SDS011;57635;49.194;12.104;2023-04-25T07:01:40;4.07;;;3.67;;
8088;SDS011;57635;49.194;12.104;2023-04-25T07:04:08;3.90;;;3.60;;
8088;SDS011;57635;49.194;12.104;2023-04-25T07:06:36;3.63;;;3.33;;
8088;SDS011;57635;49.194;12.104;2023-04-25T07:09:09;3.60;;;3.30;;
8088;SDS011;57635;49.194;12.104;2023-04-25T07:11:37;3.90;;;3.60;;
8088;SDS011;57635;49.194;12.104;2023-04-25T07:14:05;4.20;;;3.80;;
8088;SDS011;57635;49.194;12.104;2023-04-25T07:16:32;3.67;;;3.37;;
8088;SDS011;57635;49.194;12.104;2023-04-25T07:19:00;3.80;;;3.40;;
8088;SDS011;57635;49.194;12.104;2023-04-25T07:21:28;3.70;;;3.50;;
8088;SDS011;57635;49.194;12.104;2023-04-25T07:23:57;3.33;;;3.13;;
8088;SDS011;57635;49.194;12.104;2023-04-25T07:26:26;3.43;;;3.13;;
8088;SDS011;57635;49.194;12.104;2023-04-25T07:28:53;3.50;;;3.30;;
8088;SDS011;57635;49.194;12.104;2023-04-25T07:31:21;3.83;;;3.60;;
8088;SDS011;57635;49.194;12.104;2023-04-25T07:33:49;3.30;;;3.00;;
8088;SDS011;57635;49.194;12.104;2023-04-25T07:36:16;3.60;;;3.30;;
8088;SDS011;57635;49.194;12.104;2023-04-25T07:38:44;3.50;;;3.20;;
8088;SDS011;57635;49.194;12.104;2023-04-25T07:41:12;3.63;;;3.33;;
8088;SDS011;57635;49.194;12.104;2023-04-25T07:43:41;4.20;;;3.63;;
8088;SDS011;57635;49.194;12.104;2023-04-25T07:46:09;4.23;;;3.83;;
8088;SDS011;57635;49.194;12.104;2023-04-25T07:48:37;3.70;;;3.50;;
8088;SDS011;57635;49.194;12.104;2023-04-25T07:51:04;2.90;;;2.80;;
8088;SDS011;57635;49.194;12.104;2023-04-25T07:53:33;4.10;;;3.77;;
8088;SDS011;57635;49.194;12.104;2023-04-25T07:56:04;3.47;;;3.27;;
8088;SDS011;57635;49.194;12.104;2023-04-25T07:58:32;3.83;;;3.60;;
8088;SDS011;57635;49.194;12.104;2023-04-25T08:01:01;3.60;;;3.40;;
8088;SDS011;57635;49.194;12.104;2023-04-25T08:03:29;3.40;;;3.20;;
8088;SDS011;57635;49.194;12.104;2023-04-25T08:05:56;3.60;;;3.40;;
8088;SDS011;57635;49.194;12.104;2023-04-25T08:08:24;3.90;;;3.50;;
8088;SDS011;57635;49.194;12.104;2023-04-25T08:10:52;3.77;;;3.57;;
8088;SDS011;57635;49.194;12.104;2023-04-25T08:13:19;4.63;;;4.23;;
8088;SDS011;57635;49.194;12.104;2023-04-25T08:15:47;4.70;;;4.30;;
8088;SDS011;57635;49.194;12.104;2023-04-25T08:18:16;5.03;;;4.60;;
8088;SDS011;57635;49.194;12.104;2023-04-25T08:20:44;4.17;;;3.90;;
8088;SDS011;57635;49.194;12.104;2023-04-25T08:23:11;3.90;;;3.60;;
8088;SDS011;57635;49.194;12.104;2023-04-25T08:25:39;4.40;;;4.10;;
8088;SDS011;57635;49.194;12.104;2023-04-25T08:28:07;4.33;;;4.10;;
8088;SDS011;57635;49.194;12.104;2023-04-25T08:30:36;4.63;;;4.33;;
8088;SDS011;57635;49.194;12.104;2023-04-25T08:33:04;3.93;;;3.63;;
8088;SDS011;57635;49.194;12.104;2023-04-25T08:35:33;3.87;;;3.67;;
8088;SDS011;57635;49.194;12.104;2023-04-25T08:38:00;3.67;;;3.47;;
8088;SDS011;57635;49.194;12.104;2023-04-25T08:40:28;3.77;;;3.57;;
8088;SDS011;57635;49.194;12.104;2023-04-25T08:42:56;3.93;;;3.70;;
8088;SDS011;57635;49.194;12.104;2023-04-25T08:45:25;5.20;;;4.03;;
8088;SDS011;57635;49.194;12.104;2023-04-25T08:47:53;4.37;;;4.17;;
8088;SDS011;57635;49.194;12.104;2023-04-25T08:50:23;3.80;;;3.60;;
8088;SDS011;57635;49.194;12.104;2023-04-25T08:52:53;4.23;;;3.50;;
8088;SDS011;57635;49.194;12.104;2023-04-25T08:55:21;4.70;;;4.30;;
8088;SDS011;57635;49.194;12.104;2023-04-25T08:57:49;4.50;;;4.10;;
8088;SDS011;57635;49.194;12.104;2023-04-25T09:00:17;4.80;;;4.40;;
8088;SDS011;57635;49.194;12.104;2023-04-25T09:02:46;4.77;;;4.37;;
8088;SDS011;57635;49.194;12.104;2023-04-25T09:05:14;4.77;;;4.27;;
8088;SDS011;57635;49.194;12.104;2023-04-25T09:07:41;4.03;;;3.83;;
8088;SDS011;57635;49.194;12.104;2023-04-25T09:10:10;4.93;;;4.60;;
8088;SDS011;57635;49.194;12.104;2023-04-25T09:12:38;4.83;;;4.30;;
8088;SDS011;57635;49.194;12.104;2023-04-25T09:15:08;4.03;;;3.83;;
8088;SDS011;57635;49.194;12.104;2023-04-25T09:17:37;4.40;;;4.10;;
8088;SDS011;57635;49.194;12.104;2023-04-25T09:20:07;4.53;;;4.23;;
8088;SDS011;57635;49.194;12.104;2023-04-25T09:22:35;4.50;;;4.10;;
8088;SDS011;57635;49.194;12.104;2023-04-25T09:25:07;4.23;;;3.90;;
8088;SDS011;57635;49.194;12.104;2023-04-25T09:27:37;4.20;;;3.90;;
8088;SDS011;57635;49.194;12.104;2023-04-25T09:30:17;4.77;;;4.47;;
8088;SDS011;57635;49.194;12.104;2023-04-25T09:32:45;3.67;;;3.47;;
8088;SDS011;57635;49.194;12.104;2023-04-25T09:35:12;4.40;;;4.10;;
8088;SDS011;57635;49.194;12.104;2023-04-25T09:37:50;4.60;;;3.70;;
8088;SDS011;57635;49.194;12.104;2023-04-25T09:40:18;3.40;;;3.20;;
8088;SDS011;57635;49.194;12.104;2023-04-25T09:42:47;4.13;;;3.83;;
8088;SDS011;57635;49.194;12.104;2023-04-25T09:45:15;4.77;;;4.43;;
8088;SDS011;57635;49.194;12.104;2023-04-25T09:47:42;6.73;;;6.23;;
8088;SDS011;57635;49.194;12.104;2023-04-25T09:50:13;4.53;;;4.23;;
8088;SDS011;57635;49.194;12.104;2023-04-25T09:52:41;3.90;;;3.70;;
8088;SDS011;57635;49.194;12.104;2023-04-25T09:55:09;4.13;;;3.83;;
8088;SDS011;57635;49.194;12.104;2023-04-25T09:57:37;4.03;;;3.73;;
8088;SDS011;57635;49.194;12.104;2023-04-25T10:00:07;3.40;;;3.20;;
8088;SDS011;57635;49.194;12.104;2023-04-25T10:02:38;3.83;;;3.40;;
8088;SDS011;57635;49.194;12.104;2023-04-25T10:05:08;3.80;;;3.60;;
8088;SDS011;57635;49.194;12.104;2023-04-25T10:07:37;3.47;;;3.27;;
8088;SDS011;57635;49.194;12.104;2023-04-25T10:10:06;3.57;;;3.27;;
8088;SDS011;57635;49.194;12.104;2023-04-25T10:12:35;4.10;;;3.80;;
8088;SDS011;57635;49.194;12.104;2023-04-25T10:15:03;3.23;;;3.03;;
8088;SDS011;57635;49.194;12.104;2023-04-25T10:17:34;3.03;;;2.83;;
8088;SDS011;57635;49.194;12.104;2023-04-25T10:20:02;3.13;;;2.93;;
8088;SDS011;57635;49.194;12.104;2023-04-25T10:22:32;2.87;;;2.67;;
8088;SDS011;57635;49.194;12.104;2023-04-25T10:25:01;3.30;;;3.10;;
8088;SDS011;57635;49.194;12.104;2023-04-25T10:27:30;2.93;;;2.83;;
8088;SDS011;57635;49.194;12.104;2023-04-25T10:30:01;2.97;;;2.87;;
8088;SDS011;57635;49.194;12.104;2023-04-25T10:32:30;2.37;;;2.27;;
8088;SDS011;57635;49.194;12.104;2023-04-25T10:35:10;3.10;;;2.90;;
8088;SDS011;57635;49.194;12.104;2023-04-25T10:40:25;2.53;;;2.43;;
8088;SDS011;57635;49.194;12.104;2023-04-25T10:42:53;2.73;;;2.60;;
8088;SDS011;57635;49.194;12.104;2023-04-25T10:45:21;2.97;;;2.77;;
8088;SDS011;57635;49.194;12.104;2023-04-25T10:47:49;2.83;;;2.63;;
8088;SDS011;57635;49.194;12.104;2023-04-25T10:50:18;2.70;;;2.60;;
8088;SDS011;57635;49.194;12.104;2023-04-25T10:52:45;2.90;;;2.70;;
8088;SDS011;57635;49.194;12.104;2023-04-25T10:55:13;2.83;;;2.73;;
8088;SDS011;57635;49.194;12.104;2023-04-25T10:57:41;3.40;;;2.83;;
8088;SDS011;57635;49.194;12.104;2023-04-25T11:00:11;3.13;;;2.93;;
8088;SDS011;57635;49.194;12.104;2023-04-25T11:02:41;2.80;;;2.60;;
8088;SDS011;57635;49.194;12.104;2023-04-25T11:05:14;2.80;;;2.70;;
8088;SDS011;57635;49.194;12.104;2023-04-25T11:07:49;3.53;;;3.33;;
8088;SDS011;57635;49.194;12.104;2023-04-25T11:10:30;3.00;;;2.90;;
8088;SDS011;57635;49.194;12.104;2023-04-25T11:12:59;2.90;;;2.80;;
8088;SDS011;57635;49.194;12.104;2023-04-25T11:15:27;3.13;;;2.93;;
8088;SDS011;57635;49.194;12.104;2023-04-25T11:17:55;3.90;;;3.10;;
8088;SDS011;57635;49.194;12.104;2023-04-25T11:20:24;2.73;;;2.53;;
8088;SDS011;57635;49.194;12.104;2023-04-25T11:22:54;3.27;;;3.07;;
8088;SDS011;57635;49.194;12.104;2023-04-25T11:25:24;2.40;;;2.30;;
8088;SDS011;57635;49.194;12.104;2023-04-25T11:27:53;2.40;;;2.30;;
8088;SDS011;57635;49.194;12.104;2023-04-25T11:30:22;2.53;;;2.30;;
8088;SDS011;57635;49.194;12.104;2023-04-25T11:32:51;3.13;;;2.83;;
8088;SDS011;57635;49.194;12.104;2023-04-25T11:35:19;2.63;;;2.43;;
8088;SDS011;57635;49.194;12.104;2023-04-25T11:37:50;2.30;;;2.20;;
8088;SDS011;57635;49.194;12.104;2023-04-25T11:40:18;4.67;;;3.90;;
8088;SDS011;57635;49.194;12.104;2023-04-25T11:42:46;3.40;;;3.10;;
8088;SDS011;57635;49.194;12.104;2023-04-25T11:45:25;3.10;;;2.90;;
8088;SDS011;57635;49.194;12.104;2023-04-25T11:47:55;4.03;;;3.67;;
8088;SDS011;57635;49.194;12.104;2023-04-25T11:50:23;3.20;;;3.00;;
8088;SDS011;57635;49.194;12.104;2023-04-25T11:52:55;2.30;;;2.20;;
8088;SDS011;57635;49.194;12.104;2023-04-25T11:55:23;2.20;;;2.10;;
8088;SDS011;57635;49.194;12.104;2023-04-25T11:57:52;2.70;;;2.50;;
8088;SDS011;57635;49.194;12.104;2023-04-25T12:00:20;2.87;;;2.67;;
8088;SDS011;57635;49.194;12.104;2023-04-25T12:02:51;2.43;;;2.33;;
8088;SDS011;57635;49.194;12.104;2023-04-25T12:05:21;2.80;;;2.60;;
8088;SDS011;57635;49.194;12.104;2023-04-25T12:07:59;2.47;;;2.37;;
8088;SDS011;57635;49.194;12.104;2023-04-25T12:10:38;2.87;;;2.67;;
8088;SDS011;57635;49.194;12.104;2023-04-25T12:13:22;2.40;;;2.20;;
8088;SDS011;57635;49.194;12.104;2023-04-25T12:15:50;2.83;;;2.63;;
8088;SDS011;57635;49.194;12.104;2023-04-25T12:18:18;2.90;;;2.63;;
8088;SDS011;57635;49.194;12.104;2023-04-25T12:20:48;2.43;;;2.33;;
8088;SDS011;57635;49.194;12.104;2023-04-25T12:23:17;2.40;;;2.23;;
8088;SDS011;57635;49.194;12.104;2023-04-25T12:25:52;2.20;;;2.10;;
8088;SDS011;57635;49.194;12.104;2023-04-25T12:28:21;2.80;;;2.70;;
8088;SDS011;57635;49.194;12.104;2023-04-25T12:30:53;3.90;;;2.63;;
8088;SDS011;57635;49.194;12.104;2023-04-25T12:33:22;2.80;;;2.60;;
8088;SDS011;57635;49.194;12.104;2023-04-25T12:35:50;2.60;;;2.40;;
8088;SDS011;57635;49.194;12.104;2023-04-25T12:38:23;2.63;;;2.53;;
8088;SDS011;57635;49.194;12.104;2023-04-25T12:40:52;2.20;;;2.10;;
8088;SDS011;57635;49.194;12.104;2023-04-25T12:43:20;2.17;;;1.97;;
8088;SDS011;57635;49.194;12.104;2023-04-25T12:45:49;2.60;;;2.50;;
8088;SDS011;57635;49.194;12.104;2023-04-25T12:48:17;2.73;;;2.60;;
8088;SDS011;57635;49.194;12.104;2023-04-25T12:50:45;2.50;;;2.30;;
8088;SDS011;57635;49.194;12.104;2023-04-25T12:53:15;2.70;;;2.20;;
8088;SDS011;57635;49.194;12.104;2023-04-25T12:55:44;2.43;;;2.23;;
8088;SDS011;57635;49.194;12.104;2023-04-25T12:58:13;2.47;;;2.17;;
8088;SDS011;57635;49.194;12.104;2023-04-25T13:00:40;4.00;;;2.23;;
8088;SDS011;57635;49.194;12.104;2023-04-25T13:03:09;2.20;;;2.10;;
8088;SDS011;57635;49.194;12.104;2023-04-25T13:05:37;3.03;;;2.83;;
8088;SDS011;57635;49.194;12.104;2023-04-25T13:08:05;2.73;;;2.43;;
8088;SDS011;57635;49.194;12.104;2023-04-25T13:10:33;2.63;;;2.50;;
8088;SDS011;57635;49.194;12.104;2023-04-25T13:13:03;2.40;;;2.30;;
8088;SDS011;57635;49.194;12.104;2023-04-25T13:15:31;2.00;;;1.90;;
8088;SDS011;57635;49.194;12.104;2023-04-25T13:17:59;2.00;;;1.90;;
8088;SDS011;57635;49.194;12.104;2023-04-25T13:20:27;3.57;;;3.00;;
8088;SDS011;57635;49.194;12.104;2023-04-25T13:22:55;2.13;;;2.03;;
8088;SDS011;57635;49.194;12.104;2023-04-25T13:25:23;2.40;;;2.00;;
8088;SDS011;57635;49.194;12.104;2023-04-25T13:27:51;2.37;;;2.27;;
8088;SDS011;57635;49.194;12.104;2023-04-25T13:30:20;2.20;;;2.10;;
8088;SDS011;57635;49.194;12.104;2023-04-25T13:32:48;2.83;;;2.63;;
8088;SDS011;57635;49.194;12.104;2023-04-25T13:35:16;3.27;;;3.17;;
8088;SDS011;57635;49.194;12.104;2023-04-25T13:37:44;2.40;;;2.30;;
8088;SDS011;57635;49.194;12.104;2023-04-25T13:40:11;2.50;;;2.30;;
8088;SDS011;57635;49.194;12.104;2023-04-25T13:42:39;3.80;;;2.50;;
8088;SDS011;57635;49.194;12.104;2023-04-25T13:45:07;2.40;;;2.20;;
8088;SDS011;57635;49.194;12.104;2023-04-25T13:47:37;2.50;;;2.30;;
8088;SDS011;57635;49.194;12.104;2023-04-25T13:50:05;2.60;;;2.40;;
8088;SDS011;57635;49.194;12.104;2023-04-25T13:52:34;1.97;;;1.87;;
8088;SDS011;57635;49.194;12.104;2023-04-25T13:55:02;2.20;;;2.03;;
8088;SDS011;57635;49.194;12.104;2023-04-25T13:57:33;1.80;;;1.70;;
8088;SDS011;57635;49.194;12.104;2023-04-25T14:00:01;1.90;;;1.80;;
8088;SDS011;57635;49.194;12.104;2023-04-25T14:02:33;2.53;;;2.10;;
8088;SDS011;57635;49.194;12.104;2023-04-25T14:05:02;1.83;;;1.70;;
8088;SDS011;57635;49.194;12.104;2023-04-25T14:07:31;2.00;;;1.90;;
8088;SDS011;57635;49.194;12.104;2023-04-25T14:09:58;4.87;;;1.90;;
8088;SDS011;57635;49.194;12.104;2023-04-25T14:12:26;2.23;;;2.10;;
8088;SDS011;57635;49.194;12.104;2023-04-25T14:14:54;2.63;;;1.60;;
8088;SDS011;57635;49.194;12.104;2023-04-25T14:17:22;1.73;;;1.63;;
8088;SDS011;57635;49.194;12.104;2023-04-25T14:19:49;2.20;;;1.50;;
8088;SDS011;57635;49.194;12.104;2023-04-25T14:22:18;1.77;;;1.67;;
8088;SDS011;57635;49.194;12.104;2023-04-25T14:24:46;2.37;;;1.33;;
8088;SDS011;57635;49.194;12.104;2023-04-25T14:27:14;2.50;;;1.43;;
8088;SDS011;57635;49.194;12.104;2023-04-25T14:29:42;1.67;;;1.50;;
8088;SDS011;57635;49.194;12.104;2023-04-25T14:32:09;1.30;;;1.30;;
8088;SDS011;57635;49.194;12.104;2023-04-25T14:34:38;1.33;;;1.33;;
8088;SDS011;57635;49.194;12.104;2023-04-25T14:37:06;1.50;;;1.50;;
8088;SDS011;57635;49.194;12.104;2023-04-25T14:39:35;1.60;;;1.60;;
8088;SDS011;57635;49.194;12.104;2023-04-25T14:42:03;1.27;;;1.27;;
8088;SDS011;57635;49.194;12.104;2023-04-25T14:44:31;1.50;;;1.40;;
8088;SDS011;57635;49.194;12.104;2023-04-25T14:46:59;5.17;;;1.50;;
8088;SDS011;57635;49.194;12.104;2023-04-25T14:49:27;1.20;;;1.20;;
8088;SDS011;57635;49.194;12.104;2023-04-25T14:51:55;2.37;;;2.23;;
8088;SDS011;57635;49.194;12.104;2023-04-25T14:54:22;3.00;;;1.87;;
8088;SDS011;57635;49.194;12.104;2023-04-25T14:56:52;1.03;;;1.03;;
8088;SDS011;57635;49.194;12.104;2023-04-25T14:59:19;1.40;;;1.40;;